Time;durP1;ratioP1;P1;durP2;ratioP2;P2;SDS_P1;SDS_P2;PMS_P1;PMS_P2;Temp;Humidity;BMP_temperature;BMP_pressure;BME280_temperature;BME280_humidity;BME280_pressure;Samples;Min_cycle;Max_cycle;Signal;HPM_P1;HPM_P2
2022/12/16 00:01:22;;;;;;;14.80;6.33;;;;;;;;;;6207488;23;20074;-53
2022/12/16 00:03:56;;;;;;;14.43;6.17;;;;;;;;;;6205881;23;20128;-64
2022/12/16 00:06:32;;;;;;;11.27;5.60;;;;;;;;;;6181812;23;20028;-59
2022/12/16 00:09:06;;;;;;;13.20;5.80;;;;;;;;;;6208595;23;20099;-59
2022/12/16 00:11:34;;;;;;;11.60;5.57;;;;;;;;;;6207379;23;20356;-59
2022/12/16 00:14:01;;;;;;;12.03;5.67;;;;;;;;;;6207942;23;20112;-61
2022/12/16 00:16:47;;;;;;;15.40;6.33;;;;;;;;;;6205556;23;20028;-60
2022/12/16 00:19:21;;;;;;;10.93;4.83;;;;;;;;;;6176795;23;20023;-57
2022/12/16 00:21:56;;;;;;;10.27;5.10;;;;;;;;;;6177576;23;20251;-62
2022/12/16 00:24:23;;;;;;;10.97;5.13;;;;;;;;;;6177853;23;20100;-53
2022/12/16 00:26:51;;;;;;;11.93;5.90;;;;;;;;;;6177132;23;20400;-55
2022/12/16 00:29:25;;;;;;;13.50;5.57;;;;;;;;;;6177142;23;20028;-52
2022/12/16 00:31:52;;;;;;;10.10;5.30;;;;;;;;;;6177719;23;20529;-53
2022/12/16 00:34:26;;;;;;;14.53;5.90;;;;;;;;;;6175460;23;20025;-55
2022/12/16 00:36:53;;;;;;;12.43;5.77;;;;;;;;;;6177393;23;20103;-52
2022/12/16 00:39:21;;;;;;;15.43;6.60;;;;;;;;;;6177527;23;20021;-54
2022/12/16 00:41:55;;;;;;;13.87;5.67;;;;;;;;;;6177372;23;20021;-50
2022/12/16 00:44:22;;;;;;;11.07;5.20;;;;;;;;;;6177410;23;20550;-53
2022/12/16 00:46:49;;;;;;;12.57;6.40;;;;;;;;;;6176723;23;20032;-53
2022/12/16 00:49:23;;;;;;;16.07;6.20;;;;;;;;;;6177455;23;20483;-52
2022/12/16 00:51:50;;;;;;;12.50;5.40;;;;;;;;;;6176351;23;20103;-54
2022/12/16 00:54:24;;;;;;;12.40;5.73;;;;;;;;;;6178833;23;20027;-52
2022/12/16 00:56:51;;;;;;;17.60;5.70;;;;;;;;;;6177525;23;20025;-52
2022/12/16 00:59:18;;;;;;;15.80;6.23;;;;;;;;;;6176104;23;20481;-44
2022/12/16 01:01:52;;;;;;;15.67;5.67;;;;;;;;;;6177078;23;20028;-64
2022/12/16 01:04:21;;;;;;;13.17;5.43;;;;;;;;;;6178492;23;20032;-64
2022/12/16 01:06:55;;;;;;;15.13;5.87;;;;;;;;;;6175455;23;20025;-64
2022/12/16 01:09:22;;;;;;;19.57;6.47;;;;;;;;;;6177086;23;20059;-64
2022/12/16 01:11:49;;;;;;;13.07;5.47;;;;;;;;;;6177036;23;20025;-65
2022/12/16 01:14:23;;;;;;;11.20;5.20;;;;;;;;;;6176589;23;20060;-64
2022/12/16 01:16:50;;;;;;;14.53;5.93;;;;;;;;;;6178164;23;20027;-65
2022/12/16 01:19:30;;;;;;;15.07;5.20;;;;;;;;;;6208269;23;20104;-52
2022/12/16 01:21:57;;;;;;;15.83;6.47;;;;;;;;;;6207460;23;20024;-60
2022/12/16 01:24:32;;;;;;;10.07;4.87;;;;;;;;;;6207949;23;20024;-60
2022/12/16 01:27:05;;;;;;;12.07;5.50;;;;;;;;;;6207753;23;20025;-61
2022/12/16 01:29:34;;;;;;;12.60;6.07;;;;;;;;;;6208525;23;20024;-58
2022/12/16 01:32:09;;;;;;;11.97;5.60;;;;;;;;;;6209352;23;20087;-59
2022/12/16 01:34:36;;;;;;;13.10;5.50;;;;;;;;;;6206319;23;20465;-60
2022/12/16 01:37:03;;;;;;;11.40;5.23;;;;;;;;;;6206981;23;20031;-63
2022/12/16 01:39:37;;;;;;;14.80;5.00;;;;;;;;;;6209496;23;20314;-44
2022/12/16 01:42:05;;;;;;;11.10;4.90;;;;;;;;;;6209505;23;20084;-56
2022/12/16 01:44:33;;;;;;;12.50;5.30;;;;;;;;;;6209817;23;20096;-51
2022/12/16 01:47:12;;;;;;;12.07;5.43;;;;;;;;;;6208350;23;20025;-50
2022/12/16 01:49:42;;;;;;;11.73;5.40;;;;;;;;;;6210110;23;20027;-53
2022/12/16 01:52:21;;;;;;;12.37;5.47;;;;;;;;;;6209940;23;20043;-53
2022/12/16 01:54:58;;;;;;;9.43;4.60;;;;;;;;;;6208083;23;20092;-60
2022/12/16 01:57:27;;;;;;;11.93;5.87;;;;;;;;;;6206489;23;20031;-54
2022/12/16 02:00:00;;;;;;;13.30;5.57;;;;;;;;;;6208370;23;20030;-55
2022/12/16 02:02:28;;;;;;;9.93;4.13;;;;;;;;;;6207915;23;20501;-51
2022/12/16 02:05:20;;;;;;;11.67;5.83;;;;;;;;;;6207995;23;20032;-55
2022/12/16 02:08:01;;;;;;;13.27;5.73;;;;;;;;;;6208071;23;20034;-55
2022/12/16 02:10:45;;;;;;;8.02;3.85;;;;;;;;;;6208250;23;20025;-54
2022/12/16 02:13:15;;;;;;;13.50;6.33;;;;;;;;;;6209057;23;20021;-57
2022/12/16 02:15:49;;;;;;;13.48;4.63;;;;;;;;;;6207777;23;20025;-53
2022/12/16 02:18:42;;;;;;;12.33;5.23;;;;;;;;;;6207810;23;20288;-58
2022/12/16 02:21:19;;;;;;;11.00;5.20;;;;;;;;;;6208556;23;20024;-59
2022/12/16 02:23:52;;;;;;;10.87;4.80;;;;;;;;;;6208828;23;20024;-55
2022/12/16 02:26:32;;;;;;;11.10;5.27;;;;;;;;;;6208571;23;20023;-60
2022/12/16 02:29:14;;;;;;;11.27;5.33;;;;;;;;;;6208068;23;20024;-57
2022/12/16 02:32:00;;;;;;;10.63;4.70;;;;;;;;;;6208933;23;20123;-58
2022/12/16 02:34:33;;;;;;;13.43;4.87;;;;;;;;;;6208181;23;20031;-54
2022/12/16 02:37:13;;;;;;;10.73;5.17;;;;;;;;;;6209509;23;20031;-49
2022/12/16 02:39:45;;;;;;;10.97;5.43;;;;;;;;;;6209228;23;20016;-51
2022/12/16 02:42:23;;;;;;;12.53;5.40;;;;;;;;;;6208416;23;20024;-50
2022/12/16 02:45:04;;;;;;;7.17;3.57;;;;;;;;;;6208522;23;20020;-48
2022/12/16 02:47:39;;;;;;;9.20;4.47;;;;;;;;;;6208692;23;20024;-52
2022/12/16 02:50:17;;;;;;;10.40;5.00;;;;;;;;;;6207793;23;20021;-52
2022/12/16 02:52:52;;;;;;;11.00;5.00;;;;;;;;;;6207697;23;20026;-49
2022/12/16 02:55:20;;;;;;;10.07;4.83;;;;;;;;;;6208833;23;20331;-51
2022/12/16 02:58:13;;;;;;;11.07;4.20;;;;;;;;;;6208916;23;20027;-64
2022/12/16 03:01:09;;;;;;;12.60;5.10;;;;;;;;;;6156580;23;20027;-64
2022/12/16 03:03:42;;;;;;;7.90;3.93;;;;;;;;;;6209677;23;20016;-64
2022/12/16 03:06:17;;;;;;;12.83;5.17;;;;;;;;;;6208275;23;20024;-64
2022/12/16 03:08:47;;;;;;;12.63;5.00;;;;;;;;;;6207167;23;20103;-64
2022/12/16 03:11:14;;;;;;;15.37;4.60;;;;;;;;;;6209113;23;20023;-47
2022/12/16 03:13:50;;;;;;;11.40;5.47;;;;;;;;;;6208253;23;20027;-64
2022/12/16 03:16:20;;;;;;;10.07;4.53;;;;;;;;;;6208820;23;20027;-54
2022/12/16 03:19:08;;;;;;;12.93;6.33;;;;;;;;;;6208014;23;20035;-48
2022/12/16 03:21:54;;;;;;;19.97;7.40;;;;;;;;;;6207617;23;20021;-53
2022/12/16 03:24:29;;;;;;;12.70;5.23;;;;;;;;;;6207992;23;20031;-50
2022/12/16 03:27:01;;;;;;;9.70;5.30;;;;;;;;;;6207335;23;20095;-50
2022/12/16 03:29:36;;;;;;;16.70;5.13;;;;;;;;;;6208700;23;20103;-52
2022/12/16 03:32:08;;;;;;;10.10;5.50;;;;;;;;;;6207568;23;20100;-54
2022/12/16 03:34:44;;;;;;;10.90;5.30;;;;;;;;;;6209062;23;20027;-48
2022/12/16 03:37:19;;;;;;;12.73;4.90;;;;;;;;;;6206684;23;20469;-45
2022/12/16 03:39:54;;;;;;;14.23;5.57;;;;;;;;;;6208232;23;20067;-43
2022/12/16 03:42:22;;;;;;;16.27;5.80;;;;;;;;;;6209028;23;20026;-47
2022/12/16 03:44:49;;;;;;;11.50;5.60;;;;;;;;;;6207603;23;20023;-44
2022/12/16 03:47:27;;;;;;;9.53;4.87;;;;;;;;;;6206686;23;20050;-46
2022/12/16 03:49:54;;;;;;;11.83;5.13;;;;;;;;;;6206916;23;20505;-60
2022/12/16 03:52:29;;;;;;;14.40;5.17;;;;;;;;;;6207375;23;20056;-47
2022/12/16 03:54:56;;;;;;;12.07;5.13;;;;;;;;;;6208457;23;20025;-62
2022/12/16 03:57:30;;;;;;;16.17;5.10;;;;;;;;;;6207511;23;20100;-62
2022/12/16 03:59:57;;;;;;;13.03;5.83;;;;;;;;;;6208346;23;20020;-62
2022/12/16 04:02:24;;;;;;;9.60;4.80;;;;;;;;;;6206742;23;20027;-61
2022/12/16 04:04:58;;;;;;;9.07;4.83;;;;;;;;;;6208495;23;20024;-62
2022/12/16 04:07:25;;;;;;;12.57;4.77;;;;;;;;;;6206545;23;20028;-63
2022/12/16 04:09:59;;;;;;;11.23;4.60;;;;;;;;;;6207571;23;20097;-50
